createdAt,value
2022-08-05T00:00:12.758Z,34.29
2022-08-05T00:01:30.870Z,34.88
2022-08-05T00:02:15.625Z,34.88
2022-08-05T00:03:19.160Z,34.99
2022-08-05T00:04:11.676Z,34.99
2022-08-05T00:06:29.205Z,37.29
2022-08-05T00:06:35.926Z,36.31
2022-08-05T00:08:05.611Z,35.34
2022-08-05T00:08:38.801Z,34.72
2022-08-05T00:09:20.226Z,34.63
2022-08-05T00:10:12.549Z,34.63
2022-08-05T00:11:30.341Z,35.20
2022-08-05T00:12:16.451Z,35.20
2022-08-05T00:13:21.641Z,36.79
2022-08-05T00:16:00.262Z,35.38
2022-08-05T00:16:12.502Z,35.38
2022-08-05T00:17:31.972Z,35.43
2022-08-05T00:18:10.539Z,35.43
2022-08-05T00:19:11.493Z,34.17
2022-08-05T00:20:10.694Z,34.45
2022-08-05T00:21:11.687Z,35.68
2022-08-05T00:22:14.811Z,34.84
2022-08-05T00:23:17.420Z,34.56
2022-08-05T00:24:16.235Z,34.47
2022-08-05T00:25:16.422Z,32.99
2022-08-05T00:26:11.809Z,34.27
2022-08-05T00:27:20.925Z,32.16
2022-08-05T00:28:16.401Z,32.16
2022-08-05T00:29:11.842Z,32.04
2022-08-05T00:30:15.500Z,32.58
2022-08-05T00:31:11.671Z,32.02
2022-08-05T00:32:18.884Z,32.19
2022-08-05T00:35:05.103Z,32.27
2022-08-05T00:35:10.984Z,32.27
2022-08-05T00:35:13.709Z,32.27
2022-08-05T00:37:17.287Z,32.04
2022-08-05T00:37:19.271Z,32.04
2022-08-05T00:38:13.315Z,32.25
2022-08-05T00:39:17.891Z,31.81
2022-08-05T00:40:13.397Z,31.96
2022-08-05T00:41:16.060Z,32.00
2022-08-05T00:42:12.598Z,32.06
2022-08-05T00:43:11.713Z,32.11
2022-08-05T00:44:12.222Z,31.70
2022-08-05T00:45:17.804Z,31.95
2022-08-05T00:46:11.540Z,32.15
2022-08-05T00:47:16.445Z,32.06
2022-08-05T00:48:11.785Z,32.66
2022-08-05T00:49:17.976Z,32.65
2022-08-05T00:50:11.930Z,32.72
2022-08-05T00:51:55.192Z,33.27
2022-08-05T00:52:12.066Z,33.27
2022-08-05T00:54:02.201Z,33.29
2022-08-05T00:54:15.245Z,33.29
2022-08-05T00:55:11.656Z,33.45
2022-08-05T00:56:12.392Z,33.47
2022-08-05T00:57:11.971Z,33.56
2022-08-05T00:58:15.073Z,33.67
2022-08-05T00:59:12.117Z,33.59
2022-08-05T01:00:19.885Z,33.59
2022-08-05T01:01:13.799Z,33.83
2022-08-05T01:02:12.601Z,33.59
2022-08-05T01:03:22.284Z,33.70
2022-08-05T01:04:19.970Z,33.98
2022-08-05T01:05:13.970Z,33.72
2022-08-05T01:07:17.858Z,33.68
2022-08-05T01:08:47.567Z,33.68
2022-08-05T01:09:11.310Z,33.68
2022-08-05T01:10:12.876Z,33.58
2022-08-05T01:11:11.845Z,33.68
2022-08-05T01:12:22.458Z,33.62
2022-08-05T01:13:27.265Z,33.63
2022-08-05T01:14:15.317Z,33.63
2022-08-05T01:15:40.514Z,33.76
2022-08-05T01:16:11.943Z,33.76
2022-08-05T01:17:11.710Z,33.65
2022-08-05T01:18:15.403Z,33.56
2022-08-05T01:19:12.012Z,33.65
2022-08-05T01:20:11.695Z,33.47
2022-08-05T01:21:22.712Z,33.40
2022-08-05T01:22:15.495Z,33.59
2022-08-05T01:23:34.851Z,33.40
2022-08-05T01:24:18.107Z,33.40
2022-08-05T01:25:11.558Z,33.40
2022-08-05T01:26:13.565Z,33.02
2022-08-05T01:27:22.875Z,33.67
2022-08-05T01:28:12.527Z,33.67
2022-08-05T01:29:11.882Z,34.04
2022-08-05T01:30:33.559Z,33.40
2022-08-05T01:31:11.619Z,33.40
2022-08-05T01:32:21.691Z,32.88
2022-08-05T01:33:12.411Z,32.88
2022-08-05T01:34:11.898Z,31.67
2022-08-05T01:35:51.596Z,31.35
2022-08-05T01:36:16.673Z,31.70
2022-08-05T01:37:17.989Z,32.77
2022-08-05T01:39:13.194Z,33.65
2022-08-05T01:40:11.080Z,34.13
2022-08-05T01:41:10.186Z,34.24
2022-08-05T01:42:13.815Z,34.40
2022-08-05T01:43:25.789Z,33.79
2022-08-05T01:44:13.639Z,33.79
2022-08-05T01:45:11.835Z,35.29
2022-08-05T01:46:46.263Z,35.08
2022-08-05T01:47:13.003Z,35.08
2022-08-05T01:48:14.330Z,35.38
2022-08-05T01:49:42.735Z,36.38
2022-08-05T01:51:16.682Z,38.5
2022-08-05T01:52:21.228Z,39.40
2022-08-05T01:53:11.241Z,39.40
2022-08-05T01:54:13.274Z,40.40
2022-08-05T01:55:12.167Z,39.20
2022-08-05T01:56:12.466Z,42
2022-08-05T01:58:40.453Z,42.95
2022-08-05T01:59:11.564Z,39.40
2022-08-05T02:00:15.855Z,30.89
2022-08-05T02:01:12.637Z,30.03
2022-08-05T02:02:14.064Z,36.27
2022-08-05T02:03:31.406Z,36.09
2022-08-05T02:04:10.762Z,36.09
2022-08-05T02:05:15.566Z,36.47
2022-08-05T02:06:41.971Z,36.77
2022-08-05T02:07:10.599Z,36.77
2022-08-05T02:08:11.379Z,36.95
2022-08-05T02:09:10.947Z,36.27
2022-08-05T02:10:17.325Z,31.29
2022-08-05T02:11:15.095Z,29.28
2022-08-05T02:12:13.734Z,29.30
2022-08-05T02:13:19.990Z,28.28
2022-08-05T02:14:17.051Z,28.28
2022-08-05T02:15:15.675Z,29.5
2022-08-05T02:17:29.675Z,31.12
2022-08-05T02:18:37.989Z,32.02
2022-08-05T02:19:10.739Z,32.02
2022-08-05T02:20:10.887Z,35.45
2022-08-05T02:21:18.557Z,38.47
2022-08-05T02:22:10.692Z,38.47
2022-08-05T02:23:12.105Z,38.65
2022-08-05T02:24:10.485Z,39.52
2022-08-05T02:25:12.611Z,41.20
2022-08-05T02:26:13.926Z,38
2022-08-05T02:27:59.348Z,41.70
2022-08-05T02:28:12.365Z,41.70
2022-08-05T02:29:26.179Z,40.09
2022-08-05T02:30:11.659Z,40.09
2022-08-05T02:31:21.092Z,36.09
2022-08-05T02:32:11.407Z,36.09
2022-08-05T02:33:10.616Z,34
2022-08-05T02:34:13.345Z,35.15
2022-08-05T02:35:22.059Z,34.15
2022-08-05T02:36:13.771Z,33.61
2022-08-05T02:37:10.827Z,34.08
2022-08-05T02:38:13.394Z,33.08
2022-08-05T02:39:12.370Z,35.70
2022-08-05T02:40:14.009Z,34.11
2022-08-05T02:41:21.526Z,33.86
2022-08-05T02:42:26.129Z,33.86
2022-08-05T02:43:11.188Z,33.78
2022-08-05T02:44:17.182Z,34.11
2022-08-05T02:45:13.813Z,34.00
2022-08-05T02:47:11.004Z,32.59
2022-08-05T02:48:16.545Z,32.22
2022-08-05T02:49:15.113Z,31.81
2022-08-05T02:50:18.114Z,31.29
2022-08-05T02:51:11.926Z,31.57
2022-08-05T02:52:13.626Z,32.29
2022-08-05T02:53:18.669Z,32.70
2022-08-05T02:54:11.657Z,32.89
2022-08-05T02:55:17.521Z,30.89
2022-08-05T02:56:10.977Z,31.31
2022-08-05T02:58:17.144Z,30.37
2022-08-05T02:58:17.471Z,30.37
2022-08-05T02:59:10.151Z,30.52
2022-08-05T03:00:12.738Z,30.29
2022-08-05T03:01:14.817Z,30.58
2022-08-05T03:02:10.734Z,30.41
2022-08-05T03:03:13.674Z,30.35
2022-08-05T03:05:11.087Z,30.14
2022-08-05T03:07:02.352Z,30.21
2022-08-05T03:07:40.587Z,30.16
2022-08-05T03:08:13.370Z,30.16
2022-08-05T03:09:11.437Z,30.32
2022-08-05T03:10:10.757Z,30.11
2022-08-05T03:12:00.000Z,30.37
2022-08-05T03:12:11.265Z,30.37
2022-08-05T03:13:10.258Z,30.32
2022-08-05T03:14:13.611Z,29.72
2022-08-05T03:15:12.984Z,30.07
2022-08-05T03:16:12.691Z,30.30
2022-08-05T03:17:12.494Z,30.13
2022-08-05T03:18:11.326Z,30.20
2022-08-05T03:19:33.165Z,29.93
2022-08-05T03:20:13.821Z,29.93
2022-08-05T03:21:10.311Z,29.54
2022-08-05T03:23:10.563Z,29.07
2022-08-05T03:24:11.959Z,29.36
2022-08-05T03:26:04.267Z,29.64
2022-08-05T03:26:35.736Z,29.48
2022-08-05T03:27:10.881Z,29.48
2022-08-05T03:28:11.576Z,29.61
2022-08-05T03:29:17.306Z,29.68
2022-08-05T03:30:12.669Z,30.23
2022-08-05T03:31:10.934Z,30.69
2022-08-05T03:32:12.161Z,30.18
2022-08-05T03:33:11.024Z,29.97
2022-08-05T03:34:13.836Z,29.87
2022-08-05T03:35:12.848Z,30.01
2022-08-05T03:36:15.436Z,30.04
2022-08-05T03:37:10.489Z,29.96
2022-08-05T03:38:11.208Z,30.26
2022-08-05T03:39:13.111Z,30.37
2022-08-05T03:40:31.286Z,30.40
2022-08-05T03:41:14.650Z,30.43
2022-08-05T03:42:10.632Z,30.55
2022-08-05T03:44:19.698Z,30.59
2022-08-05T03:44:20.084Z,30.59
2022-08-05T03:45:27.064Z,30.40
2022-08-05T03:46:11.598Z,30.40
2022-08-05T03:47:10.713Z,30.68
2022-08-05T03:48:11.518Z,31.12
2022-08-05T03:49:11.410Z,30.76
2022-08-05T03:50:13.561Z,31.03
2022-08-05T03:56:00.689Z,30.76
2022-08-05T03:56:03.758Z,30.76
2022-08-05T03:56:17.329Z,30.85
2022-08-05T03:56:18.047Z,30.85
2022-08-05T03:56:27.878Z,30.85
2022-08-05T03:56:35.401Z,30.70
2022-08-05T03:57:46.120Z,30.61
2022-08-05T03:58:13.465Z,30.61
2022-08-05T03:59:11.883Z,30.76
2022-08-05T04:00:15.817Z,30.77
2022-08-05T04:01:12.858Z,30.73
2022-08-05T04:02:58.754Z,30.31
2022-08-05T04:03:28.377Z,30.31
2022-08-05T04:04:13.806Z,30.28
2022-08-05T04:05:13.553Z,30.40
2022-08-05T04:06:12.319Z,30.31
2022-08-05T04:07:10.725Z,30.47
2022-08-05T04:08:35.997Z,30.84
2022-08-05T04:09:11.275Z,30.84
2022-08-05T04:10:10.922Z,30.76
2022-08-05T04:11:12.426Z,30.45
2022-08-05T04:12:28.082Z,30.12
2022-08-05T04:13:10.710Z,30.12
2022-08-05T04:14:11.033Z,30.38
2022-08-05T04:15:15.514Z,30.67
2022-08-05T04:16:11.181Z,30.77
2022-08-05T04:17:11.370Z,30.73
2022-08-05T04:18:22.333Z,30.82
2022-08-05T04:19:13.933Z,30.84
2022-08-05T04:20:14.379Z,30.64
2022-08-05T04:21:19.930Z,30.79
2022-08-05T04:22:15.534Z,30.87
2022-08-05T04:23:16.334Z,30.61
2022-08-05T04:24:18.706Z,31
2022-08-05T04:25:14.486Z,30.88
2022-08-05T04:26:11.286Z,31.04
2022-08-05T04:27:11.514Z,30.95
2022-08-05T04:28:17.269Z,31.62
2022-08-05T04:29:11.228Z,30.71
2022-08-05T04:30:12.841Z,30.93
2022-08-05T04:31:15.985Z,31.01
2022-08-05T04:32:11.310Z,31.12
2022-08-05T04:33:11.257Z,30.87
2022-08-05T04:34:42.908Z,30.98
2022-08-05T04:35:23.315Z,31.03
2022-08-05T04:36:45.768Z,30.93
2022-08-05T04:37:10.998Z,30.93
2022-08-05T04:38:11.004Z,30.78
2022-08-05T04:39:11.427Z,30.82
2022-08-05T04:40:11.539Z,30.89
2022-08-05T04:41:13.551Z,30.95
2022-08-05T04:42:12.478Z,31.14
2022-08-05T04:43:22.111Z,30.85
2022-08-05T04:44:13.233Z,30.85
2022-08-05T04:45:11.308Z,31.20
2022-08-05T04:46:10.403Z,31.27
2022-08-05T04:47:18.399Z,31.04
2022-08-05T04:49:18.167Z,31.13
2022-08-05T04:50:15.171Z,31.24
2022-08-05T04:51:14.981Z,30.92
2022-08-05T04:52:11.260Z,30.87
2022-08-05T04:53:11.841Z,30.80
2022-08-05T04:54:13.083Z,30.57
2022-08-05T04:55:39.829Z,30.67
2022-08-05T04:56:45.294Z,30.68
2022-08-05T04:57:11.201Z,30.68
2022-08-05T04:58:15.650Z,30.61
2022-08-05T04:59:36.791Z,30.69
2022-08-05T05:00:11.834Z,30.69
2022-08-05T05:01:11.126Z,30.64
2022-08-05T05:02:44.876Z,30.45
2022-08-05T05:03:10.929Z,30.45
2022-08-05T05:04:11.424Z,30.37
2022-08-05T05:05:32.443Z,30.12
2022-08-05T05:06:57.535Z,30.23
2022-08-05T05:07:15.817Z,30.23
2022-08-05T05:08:26.613Z,30.12
2022-08-05T05:09:13.288Z,30.31
2022-08-05T05:10:11.399Z,30.47
2022-08-05T05:11:11.352Z,30.47
2022-08-05T05:12:11.788Z,30.32
2022-08-05T05:13:11.266Z,30.21
2022-08-05T05:14:16.066Z,29.95
2022-08-05T05:15:17.442Z,29.81
2022-08-05T05:16:10.754Z,29.79
2022-08-05T05:17:12.972Z,30.12
2022-08-05T05:18:11.156Z,30.19
2022-08-05T05:19:27.269Z,29.88
2022-08-05T05:20:10.906Z,29.88
2022-08-05T05:21:10.889Z,28.65
2022-08-05T05:22:27.829Z,29.38
2022-08-05T05:23:19.858Z,29.38
2022-08-05T05:24:12.732Z,29.92
2022-08-05T05:25:20.683Z,29.98
2022-08-05T05:26:11.429Z,29.98
2022-08-05T05:27:11.050Z,29.97
2022-08-05T05:28:11.233Z,29.78
2022-08-05T05:29:18.388Z,29.70
2022-08-05T05:31:12.362Z,30.27
2022-08-05T05:32:15.875Z,30.17
2022-08-05T05:33:23.448Z,30.26
2022-08-05T05:34:10.846Z,30.26
2022-08-05T05:35:12.335Z,30.12
2022-08-05T05:36:10.549Z,29.69
2022-08-05T05:37:10.746Z,31.09
2022-08-05T05:38:22.169Z,30.29
2022-08-05T05:39:14.581Z,30.55
2022-08-05T05:40:11.217Z,30.36
2022-08-05T05:41:11.071Z,30.15
2022-08-05T05:42:10.189Z,30.19
2022-08-05T05:43:12.130Z,30.20
2022-08-05T05:44:43.026Z,29.96
2022-08-05T05:45:12.228Z,29.96
2022-08-05T05:48:06.113Z,24
2022-08-05T05:48:12.045Z,24
2022-08-05T05:49:26.417Z,30.27
2022-08-05T05:50:11.154Z,30.27
2022-08-05T05:51:19.407Z,30.51
2022-08-05T05:52:13.348Z,30.51
2022-08-05T05:53:25.881Z,30.28
2022-08-05T05:54:15.229Z,30.28
2022-08-05T05:55:17.372Z,30.62
2022-08-05T05:56:12.277Z,30.71
2022-08-05T05:57:23.258Z,30.64
2022-08-05T05:58:12.916Z,30.64
2022-08-05T05:59:11.481Z,30.89
2022-08-05T06:00:15.571Z,30.71
2022-08-05T06:01:17.503Z,30.88
2022-08-05T06:02:11.900Z,30.36
2022-08-05T06:04:06.976Z,30.44
2022-08-05T06:04:16.688Z,30.44
2022-08-05T06:05:20.681Z,30.09
2022-08-05T06:06:10.892Z,30.09
2022-08-05T06:07:13.990Z,30.51
2022-08-05T06:08:12.894Z,30.36
2022-08-05T06:09:26.700Z,30.35
2022-08-05T06:10:14.052Z,30.35
2022-08-05T06:11:19.693Z,30.66
2022-08-05T06:12:15.516Z,30.66
2022-08-05T06:13:11.364Z,30.70
2022-08-05T06:14:10.593Z,30.77
2022-08-05T06:15:23.524Z,31.02
2022-08-05T06:16:37.241Z,30.92
2022-08-05T06:17:53.481Z,31.37
2022-08-05T06:18:10.411Z,31.37
2022-08-05T06:19:11.472Z,32.24
2022-08-05T06:20:24.880Z,32.38
2022-08-05T06:21:22.114Z,32.69
2022-08-05T06:22:10.924Z,32.69
2022-08-05T06:23:25.047Z,32.44
2022-08-05T06:24:14.919Z,32.44
2022-08-05T06:26:20.871Z,32.27
2022-08-05T06:26:24.103Z,32.25
2022-08-05T06:28:20.700Z,32.24
2022-08-05T06:28:20.867Z,32.24
2022-08-05T06:29:46.346Z,32.29
2022-08-05T06:30:25.227Z,32.61
2022-08-05T06:31:21.770Z,32.75
2022-08-05T06:32:29.866Z,32.95
2022-08-05T06:33:19.094Z,32.95
2022-08-05T06:34:12.477Z,33.00
2022-08-05T06:36:07.066Z,33.15
2022-08-05T06:36:13.569Z,33.15
2022-08-05T06:37:10.168Z,32.70
2022-08-05T06:38:15.422Z,33.21
2022-08-05T06:39:10.711Z,33.33
2022-08-05T06:40:11.785Z,33.06
2022-08-05T06:41:11.672Z,32.77
2022-08-05T06:42:10.987Z,33.43
2022-08-05T06:44:01.020Z,34.91
2022-08-05T06:44:09.916Z,34.91
2022-08-05T06:45:20.887Z,50
2022-08-05T06:46:11.142Z,41.04
2022-08-05T06:48:35.995Z,40.41
2022-08-05T06:50:01.832Z,40.56
2022-08-05T06:50:11.464Z,40.56
2022-08-05T06:51:29.861Z,40
2022-08-05T06:52:40.963Z,39.90
2022-08-05T06:53:28.334Z,40.79
2022-08-05T06:54:18.176Z,40.79
2022-08-05T06:55:11.078Z,40.11
2022-08-05T06:56:29.777Z,39.15
2022-08-05T06:58:20.196Z,39.65
2022-08-05T06:58:36.456Z,41.45
2022-08-05T06:59:13.564Z,41.45
2022-08-05T07:00:14.284Z,41.34
2022-08-05T07:01:11.165Z,43.09
2022-08-05T07:02:11.457Z,40
2022-08-05T07:03:13.309Z,40.29
2022-08-05T07:04:13.793Z,39.18
2022-08-05T07:05:37.023Z,39.06
2022-08-05T07:07:11.547Z,39.04
2022-08-05T07:08:14.411Z,37.15
2022-08-05T07:09:10.738Z,35.20
2022-08-05T07:10:14.892Z,33.04
2022-08-05T07:11:22.353Z,33.50
2022-08-05T07:12:11.973Z,33.50
2022-08-05T07:13:13.413Z,33.58
2022-08-05T07:15:12.107Z,33.54
2022-08-05T07:16:25.677Z,33.99
2022-08-05T07:18:20.276Z,34.00
2022-08-05T07:18:27.060Z,34.00
2022-08-05T07:19:11.025Z,34.23
2022-08-05T07:20:39.103Z,34.16
2022-08-05T07:21:11.589Z,34.16
2022-08-05T07:22:11.438Z,34.13
2022-08-05T07:23:13.012Z,34.04
2022-08-05T07:24:14.881Z,33.97
2022-08-05T07:25:59.170Z,34.29
2022-08-05T07:26:10.074Z,34.29
2022-08-05T07:27:12.485Z,34.27
2022-08-05T07:28:17.364Z,34.61
2022-08-05T07:29:10.201Z,34.50
2022-08-05T07:30:32.919Z,34.08
2022-08-05T07:31:10.589Z,34.08
2022-08-05T07:32:10.402Z,33.54
2022-08-05T07:33:16.467Z,33.58
2022-08-05T07:34:13.881Z,33.16
2022-08-05T07:36:21.226Z,28
2022-08-05T07:36:24.796Z,34.04
2022-08-05T07:37:12.553Z,34.04
2022-08-05T07:38:32.882Z,34.36
2022-08-05T07:40:04.454Z,35.11
2022-08-05T07:40:36.378Z,34.68
2022-08-05T07:42:33.372Z,34.59
2022-08-05T07:43:23.729Z,35.33
2022-08-05T07:45:14.618Z,40
2022-08-05T07:46:28.481Z,35.06
2022-08-05T07:47:14.834Z,35.06
2022-08-05T07:48:12.326Z,35.27
2022-08-05T07:49:11.574Z,35.15
2022-08-05T07:50:11.106Z,35.49
2022-08-05T07:51:37.018Z,20
2022-08-05T07:52:13.064Z,20
2022-08-05T07:53:10.727Z,35.77
2022-08-05T07:54:13.221Z,35.83
2022-08-05T07:57:00.125Z,36.04
2022-08-05T07:57:17.575Z,36.88
2022-08-05T07:57:57.412Z,36.47
2022-08-05T07:59:12.456Z,37.11
2022-08-05T08:00:15.782Z,37.24
2022-08-05T08:01:16.288Z,37.63
2022-08-05T08:03:19.194Z,39.29
2022-08-05T08:04:11.520Z,38.40
2022-08-05T08:05:11.401Z,38.61
2022-08-05T08:06:13.478Z,38.95
2022-08-05T08:07:11.349Z,38.65
2022-08-05T08:08:16.073Z,38.68
2022-08-05T08:09:10.956Z,36.90
2022-08-05T08:10:11.831Z,36.83
2022-08-05T08:11:15.936Z,36.95
2022-08-05T08:12:33.294Z,37.00
2022-08-05T08:13:14.982Z,37.00
2022-08-05T08:14:10.755Z,30
2022-08-05T08:15:17.565Z,36.77
2022-08-05T08:16:53.771Z,36.41
2022-08-05T08:17:16.091Z,36.41
2022-08-05T08:18:20.901Z,36.41
2022-08-05T08:19:10.273Z,40
2022-08-05T08:21:02.069Z,35.36
2022-08-05T08:21:19.325Z,35.20
2022-08-05T08:22:15.913Z,35.20
2022-08-05T08:24:09.515Z,35.13
2022-08-05T08:24:17.459Z,35.13
2022-08-05T08:25:26.386Z,35.63
2022-08-05T08:26:11.166Z,35.63
2022-08-05T08:27:11.598Z,36.13
2022-08-05T08:30:18.958Z,36.54
2022-08-05T08:30:47.583Z,36.40
2022-08-05T08:31:14.898Z,36.40
2022-08-05T08:32:14.382Z,36.76
2022-08-05T08:33:13.714Z,36.59
2022-08-05T08:34:11.401Z,36.11
2022-08-05T08:35:16.975Z,35.79
2022-08-05T08:36:48.827Z,36.75
2022-08-05T08:37:11.984Z,36.75
2022-08-05T08:38:11.719Z,36.43
2022-08-05T08:39:19.247Z,36.88
2022-08-05T08:40:11.323Z,36.88
2022-08-05T08:41:10.474Z,36.95
2022-08-05T08:42:54.271Z,37.14
2022-08-05T08:45:29.493Z,36.20
2022-08-05T08:45:29.647Z,36.20
2022-08-05T08:45:29.786Z,36.20
2022-08-05T08:48:23.170Z,40
2022-08-05T08:50:05.991Z,36.22
2022-08-05T08:51:03.846Z,40
2022-08-05T08:51:03.870Z,40
2022-08-05T08:52:13.835Z,35.06
2022-08-05T08:52:28.497Z,35.74
2022-08-05T08:53:15.380Z,35.74
2022-08-05T08:54:10.690Z,36.29
2022-08-05T08:55:19.307Z,36.22
2022-08-05T08:56:11.197Z,35.72
2022-08-05T08:57:17.724Z,36.24
2022-08-05T08:58:13.157Z,36.50
2022-08-05T08:59:22.980Z,35.77
2022-08-05T09:00:13.319Z,35.77
2022-08-05T09:01:16.369Z,36.38
2022-08-05T09:02:12.201Z,35.84
2022-08-05T09:03:11.142Z,36.16
2022-08-05T09:04:14.111Z,36.09
2022-08-05T09:05:38.901Z,36.36
2022-08-05T09:06:21.022Z,36.36
2022-08-05T09:07:28.943Z,35.70
2022-08-05T09:08:13.337Z,35.70
2022-08-05T09:09:10.696Z,35.79
2022-08-05T09:10:11.293Z,35.77
2022-08-05T09:11:13.620Z,35.95
2022-08-05T09:12:27.211Z,35.93
2022-08-05T09:13:11.442Z,35.93
2022-08-05T09:15:05.741Z,36.86
2022-08-05T09:15:10.904Z,36.86
2022-08-05T09:16:17.863Z,37.06
2022-08-05T09:17:16.098Z,37.09
2022-08-05T09:18:13.414Z,37.31
2022-08-05T09:19:10.539Z,37.88
2022-08-05T09:20:12.197Z,37.49
2022-08-05T09:22:22.972Z,38.24
2022-08-05T09:22:31.997Z,37.90
2022-08-05T09:23:19.191Z,37.90
2022-08-05T09:24:10.472Z,38.22
2022-08-05T09:26:01.098Z,38.50
2022-08-05T09:26:20.612Z,38.50
2022-08-05T09:27:12.994Z,38.31
2022-08-05T09:28:11.375Z,38.47
2022-08-05T09:29:18.773Z,38.93
2022-08-05T09:32:46.480Z,38.56
2022-08-05T09:32:50.112Z,38.56
2022-08-05T09:33:11.295Z,38.56
2022-08-05T09:34:13.276Z,39.15
2022-08-05T09:35:11.618Z,40.06
2022-08-05T09:37:18.795Z,38.36
2022-08-05T09:39:22.568Z,36.61
2022-08-05T09:40:11.432Z,36.61
2022-08-05T09:41:11.388Z,37.04
2022-08-05T09:42:17.339Z,30
2022-08-05T09:43:11.945Z,37.06
2022-08-05T09:44:14.553Z,37.08
2022-08-05T09:46:12.657Z,37.16
2022-08-05T09:46:15.535Z,37.16
2022-08-05T09:47:16.272Z,37.09
2022-08-05T09:48:11.654Z,37.52
2022-08-05T09:49:23.085Z,37.49
2022-08-05T09:50:11.860Z,37.49
2022-08-05T09:51:19.302Z,37.49
2022-08-05T09:52:14.876Z,37.49
2022-08-05T09:53:26.037Z,37.56
2022-08-05T09:54:10.506Z,37.66
2022-08-05T09:56:13.133Z,38.43
2022-08-05T09:56:16.656Z,38.43
2022-08-05T09:57:27.074Z,38.41
2022-08-05T09:58:10.902Z,38.41
2022-08-05T09:59:11.302Z,38.63
2022-08-05T10:00:11.964Z,38.59
2022-08-05T10:01:31.596Z,39.38
2022-08-05T10:02:11.462Z,39.38
2022-08-05T10:03:11.544Z,42.5
2022-08-05T10:04:16.175Z,41.16
2022-08-05T10:05:11.586Z,40
2022-08-05T10:06:19.247Z,41.22
2022-08-05T10:08:10.380Z,40.70
2022-08-05T10:08:55.783Z,41.38
2022-08-05T10:09:27.278Z,41.38
2022-08-05T10:11:13.928Z,41.40
2022-08-05T10:12:34.240Z,41.36
2022-08-05T10:13:14.641Z,41.36
2022-08-05T10:14:14.630Z,40.61
2022-08-05T10:15:12.289Z,41.58
2022-08-05T10:16:11.859Z,41.43
2022-08-05T10:17:43.428Z,41.61
2022-08-05T10:18:10.740Z,41.61
2022-08-05T10:19:12.918Z,41.18
2022-08-05T10:20:14.202Z,39.99
2022-08-05T10:21:16.295Z,39.24
2022-08-05T10:22:15.631Z,38.93
2022-08-05T10:23:59.512Z,39.32
2022-08-05T10:24:15.145Z,39.32
2022-08-05T10:25:14.401Z,39.15
2022-08-05T10:26:17.412Z,39.52
2022-08-05T10:27:11.482Z,39.63
2022-08-05T10:29:11.089Z,39.93
2022-08-05T10:33:02.590Z,41.06
2022-08-05T10:33:09.043Z,41.06
2022-08-05T10:33:09.342Z,41.06
2022-08-05T10:33:19.275Z,41.06
2022-08-05T10:34:12.715Z,41.09
2022-08-05T10:35:13.370Z,41.74
2022-08-05T10:36:12.470Z,41.27
2022-08-05T10:37:12.904Z,41.86
2022-08-05T10:38:15.234Z,41.56
2022-08-05T10:39:25.154Z,41.99
2022-08-05T10:41:23.405Z,41.06
2022-08-05T10:42:15.826Z,40.90
2022-08-05T10:43:16.536Z,40.93
2022-08-05T10:44:13.984Z,40
2022-08-05T10:45:40.030Z,41.22
2022-08-05T10:46:14.236Z,41.22
2022-08-05T10:47:31.401Z,41.65
2022-08-05T10:48:52.531Z,41.38
2022-08-05T10:49:16.963Z,41.38
2022-08-05T10:50:40.460Z,40.79
2022-08-05T10:51:28.443Z,40.88
2022-08-05T10:52:14.290Z,40.88
2022-08-05T10:53:21.093Z,41.15
2022-08-05T10:54:37.739Z,40.61
2022-08-05T10:55:16.091Z,40.61
2022-08-05T10:56:29.913Z,40.06
2022-08-05T10:57:14.656Z,40.06
2022-08-05T10:58:15.663Z,40.18
2022-08-05T11:00:13.265Z,39.66
2022-08-05T11:01:15.175Z,40.38
2022-08-05T11:02:34.894Z,40.09
2022-08-05T11:03:29.659Z,40.16
2022-08-05T11:04:11.437Z,40.16
2022-08-05T11:05:13.549Z,40.72
2022-08-05T11:06:18.574Z,40
2022-08-05T11:07:11.095Z,40
2022-08-05T11:08:40.492Z,39.52
2022-08-05T11:09:16.491Z,39.52
2022-08-05T11:10:13.847Z,39.38
2022-08-05T11:11:20.359Z,39.36
2022-08-05T11:12:13.035Z,39.36
2022-08-05T11:13:11.092Z,39.65
2022-08-05T11:14:12.077Z,39.43
2022-08-05T11:15:43.945Z,39.47
2022-08-05T11:16:13.452Z,39.47
2022-08-05T11:18:06.484Z,39.06
2022-08-05T11:18:15.124Z,39.06
2022-08-05T11:21:15.485Z,38.74
2022-08-05T11:22:13.060Z,38.84
2022-08-05T11:23:13.892Z,38.43
2022-08-05T11:24:34.239Z,40
2022-08-05T11:26:10.164Z,38.45
2022-08-05T11:26:12.932Z,38.45
2022-08-05T11:27:51.890Z,38.68
2022-08-05T11:28:10.553Z,38.68
2022-08-05T11:29:17.787Z,38.47
2022-08-05T11:30:13.950Z,38.90
2022-08-05T11:31:19.560Z,38.47
2022-08-05T11:32:11.162Z,37.93
2022-08-05T11:33:24.503Z,37.20
2022-08-05T11:34:14.815Z,37.20
2022-08-05T11:35:11.173Z,37.18
2022-08-05T11:36:12.750Z,37.61
2022-08-05T11:38:45.664Z,38.18
2022-08-05T11:38:45.770Z,38.18
2022-08-05T11:39:11.011Z,38.18
2022-08-05T11:40:10.846Z,39.04
2022-08-05T11:42:04.566Z,39.02
2022-08-05T11:42:10.948Z,39.02
2022-08-05T11:43:11.011Z,39.08
2022-08-05T11:44:11.880Z,38.54
2022-08-05T11:46:27.437Z,39.08
2022-08-05T11:46:32.759Z,39.08
2022-08-05T11:47:22.098Z,39.29
2022-08-05T11:48:15.005Z,39.33
2022-08-05T11:49:13.495Z,39.55
2022-08-05T11:50:14.455Z,39.29
2022-08-05T11:51:14.153Z,39.49
2022-08-05T11:52:15.353Z,39.49
2022-08-05T11:53:13.320Z,39.45
2022-08-05T11:54:11.526Z,39.43
2022-08-05T11:55:13.991Z,40.40
2022-08-05T11:56:14.967Z,39.99
2022-08-05T11:57:30.524Z,39.54
2022-08-05T11:58:17.402Z,39.54
2022-08-05T11:59:17.297Z,30
2022-08-05T12:00:12.118Z,39.52
2022-08-05T12:01:13.806Z,39.59
2022-08-05T12:02:31.265Z,40.06
2022-08-05T12:03:11.388Z,40.06
2022-08-05T12:04:10.959Z,30
2022-08-05T12:05:24.853Z,39.84
2022-08-05T12:06:14.099Z,39.84
2022-08-05T12:07:12.620Z,39.79
2022-08-05T12:08:18.194Z,39.83
2022-08-05T12:09:10.614Z,39.61
2022-08-05T12:10:14.707Z,39.47
2022-08-05T12:11:10.976Z,39.59
2022-08-05T12:12:10.468Z,39.65
2022-08-05T12:13:47.957Z,30
2022-08-05T12:14:10.616Z,30
2022-08-05T12:15:15.076Z,39.40
2022-08-05T12:16:19.036Z,39.24
2022-08-05T12:18:12.162Z,39.02
2022-08-05T12:18:14.850Z,39.02
2022-08-05T12:20:26.548Z,38.93
2022-08-05T12:20:33.527Z,38.77
2022-08-05T12:21:10.868Z,38.77
2022-08-05T12:22:12.908Z,39.38
2022-08-05T12:23:10.405Z,39.61
2022-08-05T12:24:11.003Z,39.09
2022-08-05T12:25:14.329Z,38.77
2022-08-05T12:26:10.253Z,39.20
2022-08-05T12:27:32.887Z,40
2022-08-05T12:28:10.260Z,40
2022-08-05T12:29:16.100Z,39.63
2022-08-05T12:30:10.937Z,39.18
2022-08-05T12:31:10.593Z,39.04
2022-08-05T12:32:12.800Z,39.27
2022-08-05T12:33:40.029Z,39.52
2022-08-05T12:34:20.622Z,39.52
2022-08-05T12:35:10.942Z,38.97
2022-08-05T12:36:12.350Z,39.11
2022-08-05T12:37:10.539Z,39.27
2022-08-05T12:38:13.328Z,39.18
2022-08-05T12:39:10.650Z,39.02
2022-08-05T12:40:14.467Z,38.94
2022-08-05T12:41:17.188Z,38.87
2022-08-05T12:42:14.778Z,38.52
2022-08-05T12:43:12.470Z,38.50
2022-08-05T12:44:32.676Z,38.38
2022-08-05T12:45:13.104Z,39.15
2022-08-05T12:46:15.674Z,39.28
2022-08-05T12:47:17.096Z,38.81
2022-08-05T12:48:32.939Z,37.22
2022-08-05T12:49:17.299Z,37.22
2022-08-05T12:50:13.880Z,37.97
2022-08-05T12:52:23.809Z,37.47
2022-08-05T12:52:31.242Z,36.52
2022-08-05T12:53:11.052Z,36.52
2022-08-05T12:55:13.516Z,36.47
2022-08-05T12:56:38.833Z,36.88
2022-08-05T12:57:16.055Z,36.88
2022-08-05T12:59:00.968Z,36.68
2022-08-05T12:59:23.847Z,36.68
2022-08-05T13:02:11.257Z,36.27
2022-08-05T13:02:11.445Z,36.27
2022-08-05T13:02:14.127Z,36.27
2022-08-05T13:03:15.611Z,36.00
2022-08-05T13:04:16.639Z,35.29
2022-08-05T13:05:14.378Z,36.20
2022-08-05T13:06:16.156Z,35.86
2022-08-05T13:07:47.522Z,35.70
2022-08-05T13:08:12.079Z,35.70
2022-08-05T13:09:12.661Z,36.38
2022-08-05T13:10:12.901Z,36.29
2022-08-05T13:11:11.009Z,35.43
2022-08-05T13:12:16.535Z,36.00
2022-08-05T13:13:12.171Z,35.95
2022-08-05T13:14:11.213Z,36.45
2022-08-05T13:15:24.340Z,35.08
2022-08-05T13:16:15.456Z,35.08
2022-08-05T13:17:10.939Z,34.27
2022-08-05T13:18:11.115Z,33.88
2022-08-05T13:19:11.816Z,33.75
2022-08-05T13:20:12.267Z,33.31
2022-08-05T13:21:10.713Z,33.60
2022-08-05T13:22:12.085Z,33.40
2022-08-05T13:23:10.992Z,33.34
2022-08-05T13:24:12.523Z,33.75
2022-08-05T13:25:52.206Z,33.72
2022-08-05T13:26:10.589Z,33.72